Sekiu, Washington
Current Conditions -  °F | °C
As of 4:17 PM on Thursday 18 Dec 2014 (Local Time) from KUIL Reporting Station
Moderate Rain Moderate Rain  
Wind Chill: 45°   Ceiling: 1900
Heat Index: 49°   Visibility: 2mi
Dew Point: 48°   Wind: 10mph
Humidity: 97%   Direction: 150°SSE
Pressure: 29.64"   Gusts: NA
Location:  48.26°N, 124.3°W
Report Text: KUIL 190017Z AUTO 15009KT 2SM RA BR FEW012 BKN019 OVC025 09/09 A2964 RMK AO2 P0008 T00940089
Loading
Personal Weather Stations






























Interactive Weather Map New forecast layout! Learn more

10-Day Weather Forecast

Advertisements
Track Severe Weather on mobile